createdAt,value
2016-12-08T04:01:19.166Z,1026.64
2016-12-08T04:01:44.788Z,1026.57
2016-12-08T04:02:10.399Z,1026.6
2016-12-08T04:02:35.982Z,1026.59
2016-12-08T04:03:01.705Z,1026.55
2016-12-08T04:03:27.337Z,1026.6
2016-12-08T04:03:52.951Z,1026.63
2016-12-08T04:04:18.526Z,1026.56
2016-12-08T04:04:44.158Z,1026.57
2016-12-08T04:05:09.707Z,1026.54
2016-12-08T04:05:35.260Z,1026.59
2016-12-08T04:06:00.808Z,1026.53
2016-12-08T04:06:26.365Z,1026.57
2016-12-08T04:07:34.907Z,1026.55
2016-12-08T04:08:00.593Z,1026.55
2016-12-08T04:08:26.182Z,1026.55
2016-12-08T04:08:51.780Z,1026.56
2016-12-08T04:09:17.342Z,1026.54
2016-12-08T04:09:42.978Z,1026.54
2016-12-08T04:10:08.539Z,1026.52
2016-12-08T04:10:34.119Z,1026.54
2016-12-08T04:10:59.700Z,1026.58
2016-12-08T04:11:25.271Z,1026.58
2016-12-08T04:11:50.926Z,1026.6
2016-12-08T04:12:16.499Z,1026.56
2016-12-08T04:12:42.159Z,1026.53
2016-12-08T04:13:07.722Z,1026.52
2016-12-08T04:13:33.308Z,1026.51
2016-12-08T04:13:59.014Z,1026.5
2016-12-08T04:14:24.665Z,1026.49
2016-12-08T04:14:50.176Z,1026.49
2016-12-08T04:15:15.745Z,1026.46
2016-12-08T04:15:41.301Z,1026.51
2016-12-08T04:16:06.880Z,1026.46
2016-12-08T04:16:32.439Z,1026.45
2016-12-08T04:16:58.145Z,1026.48
2016-12-08T04:17:23.785Z,1026.47
2016-12-08T04:17:49.488Z,1026.48
2016-12-08T04:18:15.115Z,1026.48
2016-12-08T04:18:40.791Z,1026.48
2016-12-08T04:19:06.353Z,1026.47
2016-12-08T04:19:31.925Z,1026.46
2016-12-08T04:19:57.585Z,1026.45
2016-12-08T04:20:23.187Z,1026.41
2016-12-08T04:20:49.346Z,1026.42
2016-12-08T04:21:15.019Z,1026.47
2016-12-08T04:21:40.587Z,1026.44
2016-12-08T04:22:06.281Z,1026.47
2016-12-08T04:22:31.880Z,1026.49
2016-12-08T04:22:57.437Z,1026.45
2016-12-08T04:23:23.108Z,1026.42
2016-12-08T04:23:48.691Z,1026.44
2016-12-08T04:24:14.327Z,1026.44
2016-12-08T04:24:40.018Z,1026.45
2016-12-08T04:25:05.585Z,1026.42
2016-12-08T04:25:31.162Z,1026.44
2016-12-08T04:25:56.721Z,1026.45
2016-12-08T04:26:22.369Z,1026.5
2016-12-08T04:26:48.069Z,1026.49
2016-12-08T04:27:13.643Z,1026.4
2016-12-08T04:27:39.309Z,1026.45
2016-12-08T04:28:05.075Z,1026.41
2016-12-08T04:28:30.634Z,1026.46
2016-12-08T04:28:56.330Z,1026.43
2016-12-08T04:29:21.941Z,1026.46
2016-12-08T04:29:47.526Z,1026.43
2016-12-08T04:30:13.129Z,1026.45
2016-12-08T04:31:11.542Z,1026.44
2016-12-08T04:31:37.182Z,1026.39
2016-12-08T04:32:02.750Z,1026.45
2016-12-08T04:32:28.309Z,1026.45
2016-12-08T04:32:53.886Z,1026.4
2016-12-08T04:33:19.541Z,1026.43
2016-12-08T04:33:45.148Z,1026.43
2016-12-08T04:34:10.757Z,1026.4
2016-12-08T04:34:36.403Z,1026.38
2016-12-08T04:35:02.037Z,1026.36
2016-12-08T04:35:27.619Z,1026.4
2016-12-08T04:35:53.228Z,1026.34
2016-12-08T04:36:18.792Z,1026.41
2016-12-08T04:36:44.432Z,1026.37
2016-12-08T04:37:10.074Z,1026.34
2016-12-08T04:37:35.662Z,1026.36
2016-12-08T04:38:01.310Z,1026.34
2016-12-08T04:38:26.872Z,1026.37
2016-12-08T04:39:45.586Z,1026.34
2016-12-08T04:40:11.144Z,1026.35
2016-12-08T04:40:36.705Z,1026.4
2016-12-08T04:41:02.350Z,1026.46
2016-12-08T04:41:27.949Z,1026.38
2016-12-08T04:41:53.679Z,1026.41
2016-12-08T04:42:19.238Z,1026.42
2016-12-08T04:42:44.801Z,1026.44
2016-12-08T04:43:10.419Z,1026.51
2016-12-08T04:43:35.989Z,1026.46
2016-12-08T04:44:01.666Z,1026.53
2016-12-08T04:44:27.340Z,1026.5
2016-12-08T04:44:52.918Z,1026.47
2016-12-08T04:45:18.590Z,1026.49
2016-12-08T04:45:44.163Z,1026.43
2016-12-08T04:46:09.811Z,1026.47
2016-12-08T04:46:35.487Z,1026.41
2016-12-08T04:47:01.030Z,1026.45
2016-12-08T04:47:26.700Z,1026.42
2016-12-08T04:47:52.248Z,1026.4
2016-12-08T04:48:17.807Z,1026.34
2016-12-08T04:48:43.408Z,1026.32
2016-12-08T04:49:09.029Z,1026.35
2016-12-08T04:49:34.609Z,1026.34
2016-12-08T04:50:00.203Z,1026.25
2016-12-08T04:50:25.764Z,1026.35
2016-12-08T04:50:51.391Z,1026.34
2016-12-08T04:51:16.943Z,1026.3
2016-12-08T04:51:42.540Z,1026.4
2016-12-08T04:52:08.112Z,1026.36
2016-12-08T04:52:33.747Z,1026.36
2016-12-08T04:52:59.383Z,1026.38
2016-12-08T04:53:24.996Z,1026.39
2016-12-08T04:53:50.568Z,1026.33
2016-12-08T04:54:16.138Z,1026.31
2016-12-08T04:54:41.826Z,1026.36
2016-12-08T04:55:07.378Z,1026.38
2016-12-08T04:55:32.961Z,1026.37
2016-12-08T04:55:58.660Z,1026.35
2016-12-08T04:56:24.220Z,1026.38
2016-12-08T04:56:49.812Z,1026.33
2016-12-08T04:57:15.396Z,1026.31
2016-12-08T04:57:40.939Z,1026.23
2016-12-08T04:58:06.541Z,1026.32
2016-12-08T04:58:34.556Z,1026.26
2016-12-08T04:59:06.580Z,1026.25
2016-12-08T04:59:38.553Z,1026.26
2016-12-08T05:00:07.054Z,1026.19
2016-12-08T05:00:34.555Z,1026.19
2016-12-08T05:00:59.980Z,1026.17
2016-12-08T05:01:34.141Z,1026.2
2016-12-08T05:01:59.760Z,1026.23
2016-12-08T05:02:27.059Z,1026.19
2016-12-08T05:03:47.241Z,1026.1
2016-12-08T05:04:12.813Z,1026.01
2016-12-08T05:04:38.519Z,1026.06
2016-12-08T05:05:04.086Z,1026.06
2016-12-08T05:05:29.673Z,1026.05
2016-12-08T05:05:55.214Z,1026.09
2016-12-08T05:06:20.778Z,1026.04
2016-12-08T05:07:34.267Z,1026.04
2016-12-08T05:07:59.871Z,1026.05
2016-12-08T05:08:25.503Z,1026.09
2016-12-08T05:08:51.074Z,1026.03
2016-12-08T05:09:16.597Z,1026.05
2016-12-08T05:09:42.180Z,1026.06
2016-12-08T05:10:07.821Z,1026.01
2016-12-08T05:10:33.402Z,1026.06
2016-12-08T05:10:58.992Z,1026
2016-12-08T05:11:24.645Z,1026.01
2016-12-08T05:11:50.209Z,1026.01
2016-12-08T05:12:15.850Z,1026.06
2016-12-08T05:12:41.414Z,1026.03
2016-12-08T05:13:07.036Z,1026.04
2016-12-08T05:13:32.612Z,1026.11
2016-12-08T05:13:58.178Z,1026.09
2016-12-08T05:14:23.829Z,1026.1
2016-12-08T05:14:49.391Z,1026.1
2016-12-08T05:15:14.960Z,1026.16
2016-12-08T05:15:40.533Z,1026.16
2016-12-08T05:16:06.082Z,1026.18
2016-12-08T05:16:31.634Z,1026.2
2016-12-08T05:16:57.191Z,1026.22
2016-12-08T05:17:22.761Z,1026.26
2016-12-08T05:17:48.336Z,1026.22
2016-12-08T05:18:13.930Z,1026.27
2016-12-08T05:18:39.490Z,1026.23
2016-12-08T05:19:05.041Z,1026.23
2016-12-08T05:19:30.647Z,1026.19
2016-12-08T05:19:56.158Z,1026.24
2016-12-08T05:20:21.758Z,1026.23
2016-12-08T05:20:47.306Z,1026.18
2016-12-08T05:21:12.878Z,1026.18
2016-12-08T05:21:38.436Z,1026.12
2016-12-08T05:22:03.990Z,1026.16
2016-12-08T05:22:29.546Z,1026.15
2016-12-08T05:22:55.123Z,1026.15
2016-12-08T05:23:20.693Z,1026.14
2016-12-08T05:23:46.262Z,1026.12
2016-12-08T05:24:11.825Z,1026.13
2016-12-08T05:24:37.496Z,1026.13
2016-12-08T05:25:03.065Z,1026.15
2016-12-08T05:25:28.641Z,1026.11
2016-12-08T05:25:54.178Z,1026.11
2016-12-08T05:26:19.761Z,1026.08
2016-12-08T05:26:45.325Z,1026.09
2016-12-08T05:27:10.875Z,1026.09
2016-12-08T05:27:36.448Z,1026.1
2016-12-08T05:28:02.011Z,1026.12
2016-12-08T05:28:27.559Z,1026.14
2016-12-08T05:28:53.109Z,1026.12
2016-12-08T05:29:18.656Z,1026.1
2016-12-08T05:29:44.191Z,1026.11
2016-12-08T05:30:09.720Z,1026.13
2016-12-08T05:30:35.247Z,1026.16
2016-12-08T05:31:00.882Z,1026.09
2016-12-08T05:31:26.455Z,1026.14
2016-12-08T05:31:52.008Z,1026.14
2016-12-08T05:32:50.102Z,1026.16
2016-12-08T05:33:15.667Z,1026.14
2016-12-08T05:33:41.280Z,1026.1
2016-12-08T05:34:06.936Z,1026.13
2016-12-08T05:34:32.511Z,1026.13
2016-12-08T05:34:58.060Z,1026.13
2016-12-08T05:35:23.630Z,1026.2
2016-12-08T05:35:49.202Z,1026.16
2016-12-08T05:36:14.757Z,1026.16
2016-12-08T05:36:40.335Z,1026.12
2016-12-08T05:37:05.938Z,1026.16
2016-12-08T05:37:31.468Z,1026.17
2016-12-08T05:37:57.090Z,1026.13
2016-12-08T05:38:22.668Z,1026.14
2016-12-08T05:38:48.295Z,1026.1
2016-12-08T05:39:13.873Z,1026.12
2016-12-08T05:39:39.452Z,1026.03
2016-12-08T05:40:05.057Z,1026.01
2016-12-08T05:40:30.612Z,1026.04
2016-12-08T05:40:56.182Z,1026.01
2016-12-08T05:41:21.743Z,1026
2016-12-08T05:41:47.310Z,1025.95
2016-12-08T05:42:12.894Z,1025.99
2016-12-08T05:42:38.522Z,1025.9
2016-12-08T05:43:04.083Z,1025.91
2016-12-08T05:43:29.686Z,1025.93
2016-12-08T05:43:55.247Z,1025.94
2016-12-08T05:44:20.799Z,1025.92
2016-12-08T05:44:46.497Z,1025.88
2016-12-08T05:45:12.098Z,1025.89
2016-12-08T05:45:37.883Z,1025.87
2016-12-08T05:46:03.477Z,1025.84
2016-12-08T05:46:29.041Z,1025.88
2016-12-08T05:46:54.676Z,1025.85
2016-12-08T05:47:20.291Z,1025.84
2016-12-08T05:48:46.290Z,1025.88
2016-12-08T05:49:13.802Z,1025.88
2016-12-08T05:49:39.474Z,1025.88
2016-12-08T05:50:05.023Z,1025.87
2016-12-08T05:50:30.607Z,1025.85
2016-12-08T05:50:56.191Z,1025.81
2016-12-08T05:51:21.743Z,1025.84
2016-12-08T05:51:47.347Z,1025.83
2016-12-08T05:52:12.904Z,1025.9
2016-12-08T05:52:38.486Z,1025.85
2016-12-08T05:53:04.052Z,1025.75
2016-12-08T05:53:29.704Z,1025.77
2016-12-08T05:53:55.287Z,1025.74
2016-12-08T05:54:20.970Z,1025.73
2016-12-08T05:54:46.532Z,1025.7
2016-12-08T05:55:12.104Z,1025.72
2016-12-08T05:55:37.662Z,1025.72
2016-12-08T05:56:35.946Z,1025.71
2016-12-08T05:57:01.573Z,1025.76
2016-12-08T05:57:27.144Z,1025.72
2016-12-08T05:57:52.718Z,1025.73
2016-12-08T05:58:18.303Z,1025.7
2016-12-08T05:58:43.884Z,1025.77
2016-12-08T05:59:09.553Z,1025.78
2016-12-08T05:59:35.129Z,1025.8
2016-12-08T06:00:00.703Z,1025.86
2016-12-08T06:00:26.291Z,1025.88
2016-12-08T06:00:51.861Z,1025.94
2016-12-08T06:01:17.504Z,1025.98
2016-12-08T06:01:43.049Z,1026.01
2016-12-08T06:02:08.595Z,1026.12
2016-12-08T06:02:34.138Z,1026.15
2016-12-08T06:02:59.676Z,1026.15
2016-12-08T06:03:25.215Z,1026.2
2016-12-08T06:03:50.755Z,1026.2
2016-12-08T06:04:16.304Z,1026.18
2016-12-08T06:04:41.897Z,1026.2
2016-12-08T06:05:07.425Z,1026.2
2016-12-08T06:05:32.982Z,1026.24
2016-12-08T06:05:58.526Z,1026.24
2016-12-08T06:06:24.071Z,1026.29
2016-12-08T06:06:49.733Z,1026.29
2016-12-08T06:07:15.336Z,1026.25
2016-12-08T06:07:40.899Z,1026.35
2016-12-08T06:08:06.474Z,1026.31
2016-12-08T06:08:32.080Z,1026.34
2016-12-08T06:08:57.661Z,1026.34
2016-12-08T06:09:23.232Z,1026.35
2016-12-08T06:09:48.912Z,1026.33
2016-12-08T06:10:14.516Z,1026.34
2016-12-08T06:10:40.071Z,1026.34
2016-12-08T06:11:05.733Z,1026.38
2016-12-08T06:11:31.328Z,1026.41
2016-12-08T06:11:56.888Z,1026.38
2016-12-08T06:12:22.434Z,1026.39
2016-12-08T06:12:47.997Z,1026.38
2016-12-08T06:13:13.569Z,1026.46
2016-12-08T06:13:39.144Z,1026.42
2016-12-08T06:14:04.825Z,1026.48
2016-12-08T06:14:30.383Z,1026.42
2016-12-08T06:14:55.943Z,1026.46
2016-12-08T06:15:21.510Z,1026.35
2016-12-08T06:15:47.079Z,1026.39
2016-12-08T06:16:12.717Z,1026.37
2016-12-08T06:16:38.306Z,1026.39
2016-12-08T06:17:03.886Z,1026.46
2016-12-08T06:17:29.463Z,1026.44
2016-12-08T06:17:55.160Z,1026.25
2016-12-08T06:18:20.733Z,1026.27
2016-12-08T06:18:46.289Z,1026.25
2016-12-08T06:19:11.905Z,1026.24
2016-12-08T06:19:37.467Z,1026.24
2016-12-08T06:20:03.045Z,1026.28
2016-12-08T06:20:28.661Z,1026.25
2016-12-08T06:20:54.306Z,1026.22
2016-12-08T06:21:19.879Z,1026.21
2016-12-08T06:21:45.508Z,1026.23
2016-12-08T06:22:11.086Z,1026.25
2016-12-08T06:22:37.196Z,1026.21
2016-12-08T06:23:02.839Z,1026.18
2016-12-08T06:23:28.407Z,1026.21
2016-12-08T06:23:53.978Z,1026.21
2016-12-08T06:24:19.615Z,1026.19
2016-12-08T06:24:45.188Z,1026.14
2016-12-08T06:25:10.745Z,1026.18
2016-12-08T06:25:36.332Z,1026.19
2016-12-08T06:26:02.001Z,1026.07
2016-12-08T06:26:27.563Z,1026.07
2016-12-08T06:26:53.123Z,1026.08
2016-12-08T06:27:18.825Z,1026.02
2016-12-08T06:27:44.389Z,1026.04
2016-12-08T06:28:10.030Z,1026.04
2016-12-08T06:28:35.635Z,1026.05
2016-12-08T06:29:01.254Z,1026
2016-12-08T06:29:26.820Z,1026.07
2016-12-08T06:29:52.393Z,1026.08
2016-12-08T06:30:17.952Z,1026.07
2016-12-08T06:30:43.532Z,1026.06
2016-12-08T06:31:09.105Z,1026.02
2016-12-08T06:31:34.660Z,1026.11
2016-12-08T06:32:38.039Z,1026.13
2016-12-08T06:33:03.604Z,1026.2
2016-12-08T06:33:29.212Z,1026.2
2016-12-08T06:33:54.811Z,1026.17
2016-12-08T06:34:20.381Z,1026.17
2016-12-08T06:34:46.013Z,1026.21
2016-12-08T06:35:11.600Z,1026.15
2016-12-08T06:35:37.166Z,1026.24
2016-12-08T06:36:02.725Z,1026.27
2016-12-08T06:36:28.283Z,1026.3
2016-12-08T06:36:53.958Z,1026.28
2016-12-08T06:37:19.592Z,1026.3
2016-12-08T06:37:45.181Z,1026.32
2016-12-08T06:38:10.790Z,1026.34
2016-12-08T06:38:36.366Z,1026.39
2016-12-08T06:39:01.938Z,1026.38
2016-12-08T06:39:27.526Z,1026.39
2016-12-08T06:39:53.227Z,1026.43
2016-12-08T06:40:18.805Z,1026.4
2016-12-08T06:40:44.414Z,1026.37
2016-12-08T06:41:09.957Z,1026.44
2016-12-08T06:41:35.538Z,1026.41
2016-12-08T06:42:01.110Z,1026.39
2016-12-08T06:42:26.684Z,1026.43
2016-12-08T06:42:52.244Z,1026.49
2016-12-08T06:43:17.814Z,1026.52
2016-12-08T06:43:43.366Z,1026.58
2016-12-08T06:44:08.920Z,1026.55
2016-12-08T06:44:34.487Z,1026.53
2016-12-08T06:45:00.102Z,1026.56
2016-12-08T06:45:25.657Z,1026.56
2016-12-08T06:45:51.314Z,1026.59
2016-12-08T06:46:17.061Z,1026.58
2016-12-08T06:46:42.621Z,1026.61
2016-12-08T06:47:08.193Z,1026.58
2016-12-08T06:47:33.742Z,1026.6
2016-12-08T06:47:59.352Z,1026.61
2016-12-08T06:48:24.925Z,1026.57
2016-12-08T06:48:50.511Z,1026.6
2016-12-08T06:49:16.240Z,1026.56
2016-12-08T06:49:41.816Z,1026.54
2016-12-08T06:50:07.397Z,1026.57
2016-12-08T06:50:33.088Z,1026.55
2016-12-08T06:50:58.672Z,1026.56
2016-12-08T06:51:24.249Z,1026.56
2016-12-08T06:51:49.872Z,1026.57
2016-12-08T06:52:15.464Z,1026.55
2016-12-08T06:52:41.026Z,1026.56
2016-12-08T06:53:06.584Z,1026.54
2016-12-08T06:53:32.152Z,1026.48
2016-12-08T06:53:57.723Z,1026.57
2016-12-08T06:54:23.383Z,1026.54
2016-12-08T06:55:42.016Z,1026.56
2016-12-08T06:56:07.584Z,1026.55
2016-12-08T06:56:33.163Z,1026.5
2016-12-08T06:56:58.763Z,1026.53
2016-12-08T06:57:24.371Z,1026.54
2016-12-08T06:57:49.922Z,1026.54
2016-12-08T06:58:15.488Z,1026.52
2016-12-08T06:58:41.176Z,1026.52
2016-12-08T06:59:06.747Z,1026.5
2016-12-08T06:59:32.309Z,1026.49
2016-12-08T06:59:57.891Z,1026.5
2016-12-08T07:00:23.489Z,1026.51
2016-12-08T07:00:49.053Z,1026.49
2016-12-08T07:01:57.446Z,1026.5
2016-12-08T07:02:23.026Z,1026.45
2016-12-08T07:02:48.643Z,1026.43
2016-12-08T07:03:14.210Z,1026.46
2016-12-08T07:03:39.814Z,1026.51
2016-12-08T07:04:05.454Z,1026.5
2016-12-08T07:04:31.327Z,1026.52
2016-12-08T07:04:56.893Z,1026.49
2016-12-08T07:05:22.469Z,1026.53
2016-12-08T07:05:48.096Z,1026.51
2016-12-08T07:06:13.685Z,1026.48
2016-12-08T07:06:39.277Z,1026.49
2016-12-08T07:07:04.884Z,1026.46
2016-12-08T07:07:30.529Z,1026.49
2016-12-08T07:07:56.107Z,1026.58
2016-12-08T07:08:21.717Z,1026.55
2016-12-08T07:08:47.347Z,1026.51
2016-12-08T07:09:12.905Z,1026.49
2016-12-08T07:09:38.558Z,1026.49
2016-12-08T07:10:04.113Z,1026.52
2016-12-08T07:10:29.681Z,1026.5
2016-12-08T07:10:55.228Z,1026.49
2016-12-08T07:11:20.777Z,1026.57
2016-12-08T07:11:46.388Z,1026.48
2016-12-08T07:12:11.963Z,1026.47
2016-12-08T07:12:37.515Z,1026.5
2016-12-08T07:13:03.255Z,1026.51
2016-12-08T07:13:28.808Z,1026.5
2016-12-08T07:13:54.377Z,1026.52
2016-12-08T07:14:19.964Z,1026.5
2016-12-08T07:14:45.620Z,1026.56
2016-12-08T07:15:11.254Z,1026.56
2016-12-08T07:15:36.899Z,1026.63
2016-12-08T07:16:02.479Z,1026.59
2016-12-08T07:16:28.052Z,1026.6
2016-12-08T07:16:53.708Z,1026.57
2016-12-08T07:17:19.340Z,1026.61
2016-12-08T07:17:44.906Z,1026.59
2016-12-08T07:18:10.562Z,1026.63
2016-12-08T07:18:36.112Z,1026.64
2016-12-08T07:19:01.689Z,1026.64
2016-12-08T07:19:27.271Z,1026.67
2016-12-08T07:19:52.952Z,1026.67
2016-12-08T07:20:18.522Z,1026.74
2016-12-08T07:20:44.087Z,1026.7
2016-12-08T07:21:09.732Z,1026.71
2016-12-08T07:21:35.317Z,1026.81
2016-12-08T07:22:00.890Z,1026.76
2016-12-08T07:22:26.465Z,1026.8
2016-12-08T07:22:52.146Z,1026.76
2016-12-08T07:23:17.695Z,1026.76
2016-12-08T07:23:43.262Z,1026.76
2016-12-08T07:24:08.821Z,1026.83
2016-12-08T07:24:34.381Z,1026.81
2016-12-08T07:24:59.982Z,1026.78
2016-12-08T07:25:25.544Z,1026.82
2016-12-08T07:25:51.378Z,1026.81
2016-12-08T07:26:16.994Z,1026.86
2016-12-08T07:26:42.602Z,1026.83
2016-12-08T07:27:08.181Z,1026.83
2016-12-08T07:27:33.743Z,1026.83
2016-12-08T07:27:59.309Z,1026.85
2016-12-08T07:28:25.007Z,1026.87
2016-12-08T07:28:50.555Z,1026.8
2016-12-08T07:29:16.125Z,1026.82
2016-12-08T07:29:41.775Z,1026.86
2016-12-08T07:30:07.346Z,1026.85
2016-12-08T07:30:32.908Z,1026.77
2016-12-08T07:30:58.474Z,1026.76
2016-12-08T07:31:24.059Z,1026.72
2016-12-08T07:31:49.629Z,1026.71
2016-12-08T07:32:15.193Z,1026.79
2016-12-08T07:32:40.756Z,1026.72
2016-12-08T07:33:06.560Z,1026.76
2016-12-08T07:33:32.337Z,1026.67
2016-12-08T07:33:57.917Z,1026.66
2016-12-08T07:34:23.469Z,1026.65
2016-12-08T07:34:49.199Z,1026.68
2016-12-08T07:35:14.773Z,1026.66
2016-12-08T07:35:40.330Z,1026.61
2016-12-08T07:36:05.882Z,1026.65
2016-12-08T07:36:31.443Z,1026.63
2016-12-08T07:36:57.010Z,1026.6
2016-12-08T07:37:22.583Z,1026.56
2016-12-08T07:37:48.157Z,1026.6
2016-12-08T07:38:13.728Z,1026.6
2016-12-08T07:38:39.360Z,1026.53
2016-12-08T07:39:04.936Z,1026.6
2016-12-08T07:39:30.531Z,1026.59
2016-12-08T07:39:56.229Z,1026.59
2016-12-08T07:40:21.801Z,1026.56
2016-12-08T07:40:47.411Z,1026.56
2016-12-08T07:41:13.026Z,1026.6
2016-12-08T07:41:38.599Z,1026.57
2016-12-08T07:42:04.183Z,1026.64
2016-12-08T07:42:29.744Z,1026.6
2016-12-08T07:42:55.363Z,1026.59
2016-12-08T07:43:20.923Z,1026.59
2016-12-08T07:43:46.661Z,1026.67
2016-12-08T07:44:12.255Z,1026.6
2016-12-08T07:44:37.821Z,1026.57
2016-12-08T07:45:51.291Z,1026.56
2016-12-08T07:46:17.569Z,1026.58
2016-12-08T07:46:43.265Z,1026.59
2016-12-08T07:47:08.849Z,1026.57
2016-12-08T07:47:42.906Z,1026.63
2016-12-08T07:48:08.456Z,1026.66
2016-12-08T07:48:34.109Z,1026.66
2016-12-08T07:48:59.671Z,1026.66
2016-12-08T07:49:25.240Z,1026.65
2016-12-08T07:49:50.815Z,1026.71
2016-12-08T07:50:16.645Z,1026.73
2016-12-08T07:50:42.251Z,1026.7
2016-12-08T07:51:07.804Z,1026.7
2016-12-08T07:51:33.357Z,1026.69
2016-12-08T07:51:58.916Z,1026.71
2016-12-08T07:52:24.520Z,1026.66
2016-12-08T07:52:50.085Z,1026.68
2016-12-08T07:53:15.683Z,1026.7
2016-12-08T07:53:41.237Z,1026.73
2016-12-08T07:54:06.820Z,1026.73
2016-12-08T07:54:32.424Z,1026.7
2016-12-08T07:54:58.052Z,1026.78
2016-12-08T07:55:23.617Z,1026.72
2016-12-08T07:55:49.208Z,1026.73
2016-12-08T07:56:14.779Z,1026.74
2016-12-08T07:56:40.322Z,1026.72
2016-12-08T07:57:05.872Z,1026.77
2016-12-08T07:57:31.474Z,1026.76
2016-12-08T07:57:57.123Z,1026.72
2016-12-08T07:58:22.754Z,1026.7
2016-12-08T07:58:48.327Z,1026.73
2016-12-08T07:59:13.891Z,1026.71
2016-12-08T07:59:40.282Z,1026.74
2016-12-08T08:00:05.025Z,1026.75
2016-12-08T08:00:30.621Z,1026.71
2016-12-08T08:00:56.170Z,1026.7
2016-12-08T08:01:21.748Z,1026.73
2016-12-08T08:01:47.308Z,1026.73
2016-12-08T08:02:12.879Z,1026.77
2016-12-08T08:02:38.533Z,1026.75
2016-12-08T08:03:04.090Z,1026.74
2016-12-08T08:03:29.650Z,1026.7
2016-12-08T08:03:55.208Z,1026.71
2016-12-08T08:04:20.776Z,1026.74
2016-12-08T08:04:46.449Z,1026.68
2016-12-08T08:05:12.031Z,1026.71
2016-12-08T08:05:37.645Z,1026.73
2016-12-08T08:06:03.226Z,1026.73
2016-12-08T08:06:28.786Z,1026.73
2016-12-08T08:06:54.331Z,1026.74
2016-12-08T08:07:19.878Z,1026.74
2016-12-08T08:07:45.442Z,1026.83
2016-12-08T08:08:11.025Z,1026.77
2016-12-08T08:08:36.607Z,1026.75
2016-12-08T08:09:02.359Z,1026.77
2016-12-08T08:09:27.911Z,1026.74
2016-12-08T08:09:53.476Z,1026.74
2016-12-08T08:10:19.045Z,1026.77
2016-12-08T08:10:44.649Z,1026.8
2016-12-08T08:11:10.295Z,1026.74
2016-12-08T08:11:35.841Z,1026.77
2016-12-08T08:12:01.409Z,1026.78
2016-12-08T08:12:27.092Z,1026.77
2016-12-08T08:12:52.906Z,1026.84
2016-12-08T08:13:18.498Z,1026.76
2016-12-08T08:13:44.075Z,1026.82
2016-12-08T08:14:09.732Z,1026.8
2016-12-08T08:14:35.350Z,1026.76
2016-12-08T08:15:00.932Z,1026.81
2016-12-08T08:15:26.517Z,1026.77
2016-12-08T08:15:52.144Z,1026.82
2016-12-08T08:16:17.758Z,1026.85
2016-12-08T08:16:43.303Z,1026.83
2016-12-08T08:17:08.925Z,1026.84
2016-12-08T08:17:34.522Z,1026.82
2016-12-08T08:18:00.078Z,1026.78
2016-12-08T08:18:25.646Z,1026.83
2016-12-08T08:18:51.256Z,1026.82
2016-12-08T08:19:16.823Z,1026.84
2016-12-08T08:19:42.356Z,1026.83
2016-12-08T08:20:08.097Z,1026.87
2016-12-08T08:20:33.660Z,1026.89
2016-12-08T08:20:59.207Z,1026.89
2016-12-08T08:21:24.769Z,1026.82
2016-12-08T08:21:50.362Z,1026.79
2016-12-08T08:22:15.932Z,1026.81
2016-12-08T08:22:41.541Z,1026.77
2016-12-08T08:23:07.127Z,1026.79
2016-12-08T08:23:32.733Z,1026.84
2016-12-08T08:23:58.277Z,1026.78
2016-12-08T08:24:23.843Z,1026.87
2016-12-08T08:24:49.406Z,1026.87
2016-12-08T08:25:15.056Z,1026.82
2016-12-08T08:25:40.645Z,1026.85
2016-12-08T08:26:06.193Z,1026.83
2016-12-08T08:26:31.743Z,1026.87
2016-12-08T08:26:57.279Z,1026.92
2016-12-08T08:27:22.914Z,1026.87
2016-12-08T08:27:48.442Z,1026.86
2016-12-08T08:28:14.026Z,1026.86
2016-12-08T08:28:39.740Z,1026.88
2016-12-08T08:29:05.285Z,1026.86
2016-12-08T08:29:30.831Z,1026.86
2016-12-08T08:29:56.388Z,1026.85
2016-12-08T08:30:22.028Z,1026.78
2016-12-08T08:30:47.812Z,1026.84
2016-12-08T08:31:13.356Z,1026.85
2016-12-08T08:31:38.895Z,1026.79
2016-12-08T08:32:04.557Z,1026.82
2016-12-08T08:32:30.097Z,1026.78
2016-12-08T08:32:55.714Z,1026.77
2016-12-08T08:33:21.327Z,1026.78
2016-12-08T08:33:46.868Z,1026.77
2016-12-08T08:34:12.415Z,1026.76
2016-12-08T08:34:38.138Z,1026.8
2016-12-08T08:35:03.689Z,1026.73
2016-12-08T08:35:29.237Z,1026.76
2016-12-08T08:35:54.793Z,1026.74
2016-12-08T08:36:20.346Z,1026.75
2016-12-08T08:36:45.899Z,1026.79
2016-12-08T08:37:11.459Z,1026.76
2016-12-08T08:37:37.106Z,1026.78
2016-12-08T08:38:02.659Z,1026.83
2016-12-08T08:38:28.261Z,1026.81
2016-12-08T08:38:53.795Z,1026.84
2016-12-08T08:39:19.359Z,1026.87
2016-12-08T08:39:44.890Z,1026.82
2016-12-08T08:40:10.427Z,1026.87
2016-12-08T08:40:35.978Z,1026.92
2016-12-08T08:41:01.545Z,1026.9
2016-12-08T08:41:27.157Z,1026.9
2016-12-08T08:41:52.700Z,1026.89
2016-12-08T08:42:18.271Z,1026.9
2016-12-08T08:42:43.850Z,1026.95
2016-12-08T08:43:09.421Z,1026.97
2016-12-08T08:43:34.981Z,1026.92
2016-12-08T08:44:00.517Z,1026.95
2016-12-08T08:44:26.063Z,1026.92
2016-12-08T08:44:51.630Z,1026.93
2016-12-08T08:45:17.229Z,1026.95
2016-12-08T08:45:42.774Z,1026.87
2016-12-08T08:46:08.347Z,1026.91
2016-12-08T08:46:33.927Z,1026.92
2016-12-08T08:46:59.496Z,1026.89
2016-12-08T08:47:25.038Z,1026.85
2016-12-08T08:47:50.621Z,1026.9
2016-12-08T08:48:16.183Z,1026.86
2016-12-08T08:48:41.747Z,1026.91
2016-12-08T08:49:07.395Z,1026.94
2016-12-08T08:49:32.951Z,1026.97
2016-12-08T08:49:58.512Z,1026.97
2016-12-08T08:50:24.169Z,1026.97
2016-12-08T08:50:49.720Z,1026.96
2016-12-08T08:51:15.306Z,1026.91
2016-12-08T08:51:40.839Z,1026.97
2016-12-08T08:52:06.419Z,1026.95
2016-12-08T08:52:31.986Z,1026.97
2016-12-08T08:52:57.552Z,1026.93
2016-12-08T08:53:23.112Z,1026.94
2016-12-08T08:53:48.664Z,1026.95
2016-12-08T08:54:14.247Z,1026.99
2016-12-08T08:54:39.816Z,1027.01
2016-12-08T08:55:05.362Z,1026.99
2016-12-08T08:55:31.045Z,1027.03
2016-12-08T08:55:56.730Z,1027.03
2016-12-08T08:56:22.485Z,1027
2016-12-08T08:56:48.036Z,1027.06
2016-12-08T08:57:13.595Z,1027.04
2016-12-08T08:57:39.176Z,1027.04
2016-12-08T08:58:04.753Z,1027.03
2016-12-08T08:58:30.331Z,1027.02
2016-12-08T08:58:55.892Z,1027.01
2016-12-08T08:59:21.460Z,1027.03
2016-12-08T08:59:47.023Z,1027.05
2016-12-08T09:00:12.578Z,1027.02
2016-12-08T09:00:38.132Z,1027
2016-12-08T09:01:03.699Z,1027.01
2016-12-08T09:01:29.236Z,1026.98
2016-12-08T09:01:54.853Z,1027
2016-12-08T09:02:20.543Z,1027.01
2016-12-08T09:02:46.078Z,1027.02
2016-12-08T09:03:11.640Z,1027.03
2016-12-08T09:03:37.304Z,1027.03
2016-12-08T09:04:02.854Z,1026.97
2016-12-08T09:04:28.411Z,1027.03
2016-12-08T09:04:54.081Z,1027.02
2016-12-08T09:05:19.645Z,1027.02
2016-12-08T09:05:45.231Z,1027
2016-12-08T09:06:10.928Z,1027.01
2016-12-08T09:06:36.605Z,1026.99
2016-12-08T09:07:02.170Z,1026.98
2016-12-08T09:07:27.727Z,1026.99
2016-12-08T09:07:53.315Z,1026.98
2016-12-08T09:08:18.852Z,1026.93
2016-12-08T09:08:44.403Z,1026.98
2016-12-08T09:09:09.972Z,1026.96
2016-12-08T09:09:35.517Z,1026.93
2016-12-08T09:10:01.088Z,1026.95
2016-12-08T09:10:26.634Z,1026.97
2016-12-08T09:10:52.192Z,1026.93
2016-12-08T09:11:17.921Z,1026.9
2016-12-08T09:11:43.494Z,1026.93
2016-12-08T09:12:09.028Z,1026.93
2016-12-08T09:12:34.567Z,1026.95
2016-12-08T09:13:00.111Z,1026.98
2016-12-08T09:13:25.647Z,1026.93
2016-12-08T09:13:51.194Z,1026.97
2016-12-08T09:14:16.757Z,1026.91
2016-12-08T09:14:42.308Z,1026.91
2016-12-08T09:15:07.855Z,1026.9
2016-12-08T09:15:33.411Z,1026.91
2016-12-08T09:15:58.972Z,1026.97
2016-12-08T09:16:24.517Z,1026.94
2016-12-08T09:16:50.088Z,1026.92
2016-12-08T09:17:15.636Z,1026.92
2016-12-08T09:17:41.177Z,1026.91
2016-12-08T09:18:06.746Z,1026.89
2016-12-08T09:18:32.292Z,1026.83
2016-12-08T09:18:57.836Z,1026.84
2016-12-08T09:19:23.430Z,1026.89
2016-12-08T09:19:49.001Z,1026.91
2016-12-08T09:20:14.577Z,1026.88
2016-12-08T09:20:40.144Z,1026.84
2016-12-08T09:21:05.721Z,1026.84
2016-12-08T09:21:31.260Z,1026.76